createdAt,value
2022-10-24T00:01:16.109Z,95.70
2022-10-24T00:03:43.118Z,95.60
2022-10-24T00:06:11.848Z,95.94
2022-10-24T00:08:40.838Z,96.17
2022-10-24T00:11:15.605Z,95.85
2022-10-24T00:13:43.575Z,96.26
2022-10-24T00:16:11.799Z,96.30
2022-10-24T00:18:38.699Z,96.16
2022-10-24T00:21:06.299Z,96.34
2022-10-24T00:23:33.262Z,96.63
2022-10-24T00:26:04.430Z,96.91
2022-10-24T00:28:33.460Z,96.60
2022-10-24T00:31:01.062Z,96.47
2022-10-24T00:33:28.202Z,96.66
2022-10-24T00:35:55.175Z,96.98
2022-10-24T00:38:22.196Z,96.55
2022-10-24T00:40:49.185Z,96.79
2022-10-24T00:43:20.525Z,96.64
2022-10-24T00:45:57.516Z,96.88
2022-10-24T00:48:30.578Z,96.69
2022-10-24T00:51:01.880Z,96.32
2022-10-24T00:53:32.013Z,95.84
2022-10-24T00:56:02.752Z,96.15
2022-10-24T00:58:32.692Z,96.04
2022-10-24T01:01:00.021Z,96.84
2022-10-24T01:03:27.530Z,96.70
2022-10-24T01:06:11.406Z,96.70
2022-10-24T01:09:18.411Z,96.99
2022-10-24T01:12:11.252Z,98.13
2022-10-24T01:14:53.117Z,98.49
2022-10-24T01:17:43.429Z,98.68
2022-10-24T01:20:42.978Z,98.68
2022-10-24T01:23:17.808Z,98.23
2022-10-24T01:25:52.040Z,98.85
2022-10-24T01:28:27.668Z,98.81
2022-10-24T01:31:08.030Z,99.04
2022-10-24T01:33:42.223Z,98.52
2022-10-24T01:36:30.947Z,98.87
2022-10-24T01:39:02.498Z,98.83
2022-10-24T01:41:31.462Z,98.68
2022-10-24T01:44:08.530Z,98.84
2022-10-24T01:46:40.253Z,99.45
2022-10-24T01:49:14.739Z,99.42
2022-10-24T01:51:42.698Z,99.64
2022-10-24T01:54:10.943Z,99.81
2022-10-24T01:56:37.859Z,99.42
2022-10-24T01:59:28.602Z,99.40
2022-10-24T02:01:56.907Z,99.30
2022-10-24T02:04:27.053Z,99.14
2022-10-24T02:06:56.564Z,99.37
2022-10-24T02:09:24.705Z,99.43
2022-10-24T02:11:53.746Z,99.49
2022-10-24T02:14:49.220Z,99.04
2022-10-24T02:17:17.298Z,99.55
2022-10-24T02:19:45.187Z,99.61
2022-10-24T02:22:28.184Z,99.81
2022-10-24T02:25:03.734Z,99.83
2022-10-24T02:27:33.886Z,99.50
2022-10-24T02:30:09.561Z,99.50
2022-10-24T02:32:41.249Z,99.69
2022-10-24T02:35:10.170Z,99.20
2022-10-24T02:37:43.132Z,99.35
2022-10-24T02:40:13.781Z,98.77
2022-10-24T02:42:42.478Z,98.47
2022-10-24T02:45:10.824Z,98.29
2022-10-24T02:47:41.781Z,98.28
2022-10-24T02:50:09.528Z,98.24
2022-10-24T02:52:38.621Z,98.26
2022-10-24T02:55:06.726Z,98.92
2022-10-24T02:57:33.718Z,98.74
2022-10-24T03:00:00.726Z,98.59
2022-10-24T03:02:27.960Z,98.80
2022-10-24T03:04:55.068Z,98.64
2022-10-24T03:07:22.028Z,98.35
2022-10-24T03:09:49.490Z,98.38
2022-10-24T03:12:17.919Z,98.29
2022-10-24T03:14:45.313Z,99.27
2022-10-24T03:17:12.198Z,99.91
2022-10-24T03:19:39.151Z,100.00
2022-10-24T03:22:06.104Z,100.00
2022-10-24T03:24:43.803Z,100.00
2022-10-24T03:27:11.976Z,100.00
2022-10-24T03:29:38.837Z,100.00
2022-10-24T03:32:06.553Z,100.00
2022-10-24T03:34:33.695Z,99.50
2022-10-24T03:37:00.944Z,98.73
2022-10-24T03:39:27.772Z,98.30
2022-10-24T03:41:54.741Z,98.25
2022-10-24T03:44:21.665Z,98.85
2022-10-24T03:46:48.557Z,99.12
2022-10-24T03:49:15.360Z,99.21
2022-10-24T03:51:42.293Z,99.22
2022-10-24T03:54:09.598Z,99.24
2022-10-24T03:56:36.763Z,99.58
2022-10-24T03:59:03.613Z,99.57
2022-10-24T04:01:30.653Z,99.86
2022-10-24T04:03:57.764Z,99.98
2022-10-24T04:06:24.728Z,100.00
2022-10-24T04:08:51.562Z,99.74
2022-10-24T04:11:18.587Z,100.00
2022-10-24T04:13:45.613Z,99.69
2022-10-24T04:16:12.508Z,100.00
2022-10-24T04:18:39.314Z,99.90
2022-10-24T04:21:06.787Z,100.00
2022-10-24T04:23:36.987Z,100.00
2022-10-24T04:26:04.463Z,99.85
2022-10-24T04:28:31.342Z,99.79
2022-10-24T04:30:58.635Z,99.68
2022-10-24T04:33:26.246Z,99.35
2022-10-24T04:35:53.289Z,99.24
2022-10-24T04:38:20.489Z,98.74
2022-10-24T04:40:53.463Z,98.69
2022-10-24T04:43:21.957Z,99.11
2022-10-24T04:45:48.984Z,99.64
2022-10-24T04:48:16.872Z,99.47
2022-10-24T04:50:45.035Z,99.36
2022-10-24T04:53:12.722Z,99.20
2022-10-24T04:55:39.737Z,99.17
2022-10-24T04:58:06.834Z,99.08
2022-10-24T05:00:34.002Z,99.40
2022-10-24T05:03:00.937Z,99.49
2022-10-24T05:05:27.968Z,99.95
2022-10-24T05:07:54.978Z,100.00
2022-10-24T05:10:21.844Z,100.00
2022-10-24T05:12:48.931Z,100.00
2022-10-24T05:15:16.062Z,100.00
2022-10-24T05:17:42.872Z,100.00
2022-10-24T05:20:10.827Z,100.00
2022-10-24T05:22:38.082Z,100.00
2022-10-24T05:25:05.866Z,100.00
2022-10-24T05:27:32.846Z,100.00
2022-10-24T05:30:00.099Z,100.00
2022-10-24T05:32:27.006Z,99.96
2022-10-24T05:34:53.935Z,99.16
2022-10-24T05:37:20.830Z,99.23
2022-10-24T05:39:47.945Z,99.26
2022-10-24T05:42:15.584Z,99.41
2022-10-24T05:44:42.650Z,99.56
2022-10-24T05:47:09.542Z,99.42
2022-10-24T05:49:36.917Z,99.61
2022-10-24T05:52:04.182Z,99.69
2022-10-24T05:54:42.422Z,99.42
2022-10-24T05:57:18.111Z,98.34
2022-10-24T05:59:45.007Z,98.21
2022-10-24T06:02:21.811Z,98.01
2022-10-24T06:04:50.683Z,98.65
2022-10-24T06:07:19.022Z,98.25
2022-10-24T06:09:49.150Z,97.67
2022-10-24T06:12:16.274Z,97.50
2022-10-24T06:14:44.671Z,96.96
2022-10-24T06:17:12.254Z,96.45
2022-10-24T06:19:40.285Z,96.65
2022-10-24T06:22:08.584Z,96.74
2022-10-24T06:24:37.081Z,96.86
2022-10-24T06:27:05.795Z,96.57
2022-10-24T06:29:33.028Z,96.27
2022-10-24T06:31:59.976Z,96.08
2022-10-24T06:34:27.165Z,95.52
2022-10-24T06:36:54.612Z,94.64
2022-10-24T06:39:21.933Z,94.40
2022-10-24T06:41:48.973Z,94.11
2022-10-24T06:44:16.956Z,93.89
2022-10-24T06:46:44.850Z,93.72
2022-10-24T06:49:13.660Z,93.54
2022-10-24T06:51:41.194Z,92.71
2022-10-24T06:54:08.759Z,92.23
2022-10-24T06:56:35.766Z,91.70
2022-10-24T06:59:02.511Z,90.91
2022-10-24T07:01:31.715Z,90.31
2022-10-24T07:03:58.727Z,89.51
2022-10-24T07:06:28.873Z,88.97
2022-10-24T07:08:59.545Z,88.82
2022-10-24T07:11:27.011Z,88.41
2022-10-24T07:13:57.931Z,88.19
2022-10-24T07:16:30.048Z,87.75
2022-10-24T07:18:57.079Z,87.66
2022-10-24T07:21:26.671Z,87.29
2022-10-24T07:23:54.799Z,86.85
2022-10-24T07:26:23.625Z,86.56
2022-10-24T07:28:54.768Z,85.88
2022-10-24T07:31:24.136Z,85.74
2022-10-24T07:33:52.956Z,83.96
2022-10-24T07:36:22.870Z,83.40
2022-10-24T07:38:52.621Z,83.05
2022-10-24T07:41:19.665Z,81.96
2022-10-24T07:43:47.156Z,81.09
2022-10-24T07:46:17.084Z,79.54
2022-10-24T07:48:44.357Z,78.32
2022-10-24T07:51:13.716Z,78.18
2022-10-24T07:53:41.993Z,77.64
2022-10-24T07:56:14.545Z,77.15
2022-10-24T07:58:43.627Z,76.08
2022-10-24T08:01:15.364Z,75.64
2022-10-24T08:03:42.611Z,74.71
2022-10-24T08:06:13.706Z,74.27
2022-10-24T08:08:41.006Z,73.75
2022-10-24T08:11:10.671Z,73.40
2022-10-24T08:13:38.797Z,72.94
2022-10-24T08:16:11.204Z,72.59
2022-10-24T08:18:39.969Z,71.90
2022-10-24T08:21:10.322Z,72.08
2022-10-24T08:23:40.121Z,71.99
2022-10-24T08:26:08.666Z,70.42
2022-10-24T08:28:36.787Z,70.06
2022-10-24T08:31:06.956Z,70.22
2022-10-24T08:33:35.395Z,70.22
2022-10-24T08:36:06.155Z,68.68
2022-10-24T08:38:33.461Z,68.47
2022-10-24T08:41:01.297Z,68.23
2022-10-24T08:43:28.336Z,68.10
2022-10-24T08:46:00.891Z,67.41
2022-10-24T08:48:34.857Z,66.54
2022-10-24T08:51:27.763Z,65.83
2022-10-24T08:54:01.301Z,65.21
2022-10-24T08:56:32.305Z,64.39
2022-10-24T08:59:03.527Z,63.17
2022-10-24T09:01:43.168Z,62.06
2022-10-24T09:04:14.885Z,61.22
2022-10-24T09:06:42.834Z,60.45
2022-10-24T09:09:23.486Z,59.81
2022-10-24T09:11:56.239Z,60.22
2022-10-24T09:14:36.901Z,59.64
2022-10-24T09:20:26.742Z,56.30
2022-10-24T09:22:59.920Z,55.47
2022-10-24T09:25:35.140Z,54.87
2022-10-24T09:28:06.087Z,54.38
2022-10-24T09:30:36.900Z,53.14
2022-10-24T09:33:28.338Z,52.86
2022-10-24T09:36:01.629Z,52.54
2022-10-24T09:38:33.918Z,51.94
2022-10-24T09:41:26.662Z,52.58
2022-10-24T09:43:56.850Z,52.64
2022-10-24T09:46:39.029Z,51.53
2022-10-24T09:49:22.926Z,51.57
2022-10-24T09:52:07.097Z,51.05
2022-10-24T09:54:36.487Z,51.91
2022-10-24T09:57:12.963Z,51.22
2022-10-24T09:59:46.479Z,51.14
2022-10-24T10:02:14.765Z,50.84
2022-10-24T10:04:42.819Z,50.34
2022-10-24T10:07:13.008Z,50.46
2022-10-24T10:09:55.624Z,50.09
2022-10-24T10:12:38.059Z,50.24
2022-10-24T10:15:18.517Z,50.29
2022-10-24T10:17:55.427Z,49.67
2022-10-24T10:20:31.607Z,49.79
2022-10-24T10:23:33.711Z,49.51
2022-10-24T10:26:42.056Z,49.25
2022-10-24T10:29:18.692Z,48.91
2022-10-24T10:31:51.164Z,48.78
2022-10-24T10:34:41.096Z,48.97
2022-10-24T10:37:29.371Z,48.14
2022-10-24T10:40:15.557Z,47.69
2022-10-24T10:43:06.026Z,47.07
2022-10-24T10:45:54.970Z,47.35
2022-10-24T10:48:39.954Z,47.27
2022-10-24T10:51:36.107Z,46.91
2022-10-24T10:54:19.380Z,45.95
2022-10-24T10:56:55.799Z,45.64
2022-10-24T10:59:32.230Z,46.42
2022-10-24T11:02:14.620Z,45.92
2022-10-24T11:04:51.918Z,45.43
2022-10-24T11:07:45.314Z,45.54
2022-10-24T11:10:19.110Z,45.14
2022-10-24T11:12:46.926Z,45.28
2022-10-24T11:15:28.441Z,46.00
2022-10-24T11:18:02.535Z,46.36
2022-10-24T11:20:45.681Z,45.97
2022-10-24T11:23:20.515Z,45.97
2022-10-24T11:26:03.393Z,46.24
2022-10-24T11:28:53.047Z,45.69
2022-10-24T11:31:29.131Z,45.46
2022-10-24T11:34:06.163Z,44.30
2022-10-24T11:36:53.427Z,44.23
2022-10-24T11:39:35.424Z,44.91
2022-10-24T11:42:19.806Z,44.23
2022-10-24T11:45:04.750Z,43.95
2022-10-24T11:47:50.034Z,43.85
2022-10-24T11:50:34.992Z,44.08
2022-10-24T11:53:31.220Z,43.79
2022-10-24T11:56:15.870Z,44.02
2022-10-24T11:59:07.487Z,42.93
2022-10-24T12:01:40.876Z,42.27
2022-10-24T12:04:13.930Z,42.76
2022-10-24T12:06:55.918Z,43.25
2022-10-24T12:09:36.355Z,43.21
2022-10-24T12:12:37.912Z,43.81
2022-10-24T12:15:15.340Z,43.61
2022-10-24T12:17:49.322Z,44.39
2022-10-24T12:20:24.400Z,44.36
2022-10-24T12:22:53.367Z,44.93
2022-10-24T12:25:35.658Z,44.71
2022-10-24T12:28:05.921Z,44.83
2022-10-24T12:30:36.055Z,45.61
2022-10-24T12:33:12.884Z,46.83
2022-10-24T12:35:49.213Z,47.05
2022-10-24T12:38:28.543Z,47.23
2022-10-24T12:41:21.581Z,47.58
2022-10-24T12:43:49.607Z,47.82
2022-10-24T12:46:28.703Z,47.96
2022-10-24T12:48:59.377Z,48.26
2022-10-24T12:51:33.241Z,47.63
2022-10-24T12:54:17.379Z,47.97
2022-10-24T12:56:54.207Z,48.54
2022-10-24T12:59:30.376Z,50.03
2022-10-24T13:02:16.051Z,50.37
2022-10-24T13:05:04.628Z,50.62
2022-10-24T13:07:41.573Z,50.41
2022-10-24T13:10:37.982Z,51.17
2022-10-24T13:13:27.120Z,51.38
2022-10-24T13:16:03.162Z,51.98
2022-10-24T13:18:56.849Z,52.17
2022-10-24T13:24:17.671Z,52.48
2022-10-24T13:26:53.749Z,51.85
2022-10-24T13:29:23.750Z,52.30
2022-10-24T13:32:19.946Z,52.13
2022-10-24T13:34:51.086Z,53.16
2022-10-24T13:37:45.231Z,52.88
2022-10-24T13:40:21.895Z,52.54
2022-10-24T13:42:54.579Z,53.24
2022-10-24T13:45:44.936Z,53.34
2022-10-24T13:48:28.774Z,53.83
2022-10-24T13:51:04.949Z,53.87
2022-10-24T13:53:42.253Z,53.55
2022-10-24T13:56:11.342Z,53.53
2022-10-24T13:58:44.349Z,53.40
2022-10-24T14:01:19.426Z,53.83
2022-10-24T14:03:48.143Z,53.33
2022-10-24T14:06:15.682Z,53.14
2022-10-24T14:08:53.404Z,52.61
2022-10-24T14:11:31.471Z,53.51
2022-10-24T14:14:04.295Z,53.57
2022-10-24T14:16:36.012Z,54.02
2022-10-24T14:19:27.095Z,54.38
2022-10-24T14:21:58.384Z,55.36
2022-10-24T14:24:26.021Z,55.91
2022-10-24T14:26:56.892Z,56.00
2022-10-24T14:29:27.972Z,55.82
2022-10-24T14:32:10.047Z,56.27
2022-10-24T14:34:39.385Z,56.20
2022-10-24T14:37:17.141Z,56.39
2022-10-24T14:39:45.080Z,56.36
2022-10-24T14:42:16.959Z,56.46
2022-10-24T14:44:46.582Z,56.15
2022-10-24T14:47:32.885Z,56.40
2022-10-24T14:50:00.712Z,56.24
2022-10-24T14:52:37.289Z,56.47
2022-10-24T14:55:13.930Z,56.83
2022-10-24T14:57:49.258Z,57.46
2022-10-24T15:00:22.608Z,57.68
2022-10-24T15:02:53.741Z,58.24
2022-10-24T15:05:20.967Z,59.04
2022-10-24T15:08:22.028Z,59.69
2022-10-24T15:10:48.842Z,60.06
2022-10-24T15:13:17.679Z,60.66
2022-10-24T15:15:45.815Z,60.82
2022-10-24T15:18:21.137Z,61.32
2022-10-24T15:20:51.146Z,62.12
2022-10-24T15:23:31.460Z,62.48
2022-10-24T15:26:07.980Z,63.94
2022-10-24T15:28:36.854Z,63.90
2022-10-24T15:31:04.082Z,64.65
2022-10-24T15:33:32.416Z,65.20
2022-10-24T15:35:59.733Z,65.96
2022-10-24T15:38:26.784Z,66.20
2022-10-24T15:40:53.968Z,66.88
2022-10-24T15:43:21.330Z,66.89
2022-10-24T15:45:48.357Z,67.80
2022-10-24T15:48:15.540Z,68.08
2022-10-24T15:50:46.210Z,68.43
2022-10-24T15:53:20.649Z,69.20
2022-10-24T15:55:48.304Z,69.46
2022-10-24T15:58:17.294Z,69.81
2022-10-24T16:00:44.588Z,70.09
2022-10-24T16:03:15.688Z,70.47
2022-10-24T16:05:47.347Z,71.44
2022-10-24T16:08:16.327Z,71.36
2022-10-24T16:10:43.697Z,71.58
2022-10-24T16:13:14.713Z,72.36
2022-10-24T16:15:43.528Z,72.73
2022-10-24T16:18:11.982Z,73.08
2022-10-24T16:20:39.493Z,73.02
2022-10-24T16:23:07.621Z,73.21
2022-10-24T16:25:38.225Z,73.63
2022-10-24T16:28:07.965Z,73.97
2022-10-24T16:30:37.523Z,74.25
2022-10-24T16:33:04.923Z,74.71
2022-10-24T16:35:34.655Z,74.88
2022-10-24T16:38:04.101Z,75.24
2022-10-24T16:40:31.510Z,75.77
2022-10-24T16:43:00.459Z,76.18
2022-10-24T16:45:27.473Z,76.58
2022-10-24T16:47:54.647Z,77.02
2022-10-24T16:50:26.215Z,77.29
2022-10-24T16:53:02.787Z,77.46
2022-10-24T16:55:31.273Z,77.98
2022-10-24T16:57:59.330Z,77.36
2022-10-24T17:00:28.457Z,76.92
2022-10-24T17:02:58.235Z,76.99
2022-10-24T17:05:27.419Z,77.28
2022-10-24T17:07:55.532Z,77.43
2022-10-24T17:10:24.795Z,77.77
2022-10-24T17:12:52.731Z,78.70
2022-10-24T17:15:25.100Z,78.96
2022-10-24T17:17:52.225Z,79.31
2022-10-24T17:20:19.386Z,79.65
2022-10-24T17:22:47.025Z,80.07
2022-10-24T17:25:21.741Z,81.00
2022-10-24T17:27:49.618Z,81.46
2022-10-24T17:30:21.400Z,81.71
2022-10-24T17:32:49.186Z,82.20
2022-10-24T17:35:18.829Z,82.49
2022-10-24T17:37:52.458Z,83.14
2022-10-24T17:40:23.169Z,83.46
2022-10-24T17:42:50.360Z,83.98
2022-10-24T17:45:23.089Z,84.25
2022-10-24T17:47:50.317Z,84.45
2022-10-24T17:50:18.480Z,84.60
2022-10-24T17:52:50.985Z,84.95
2022-10-24T17:58:11.402Z,85.35
2022-10-24T18:00:39.228Z,85.41
2022-10-24T18:03:08.690Z,85.68
2022-10-24T18:05:38.324Z,85.95
2022-10-24T18:08:07.786Z,85.65
2022-10-24T18:10:37.483Z,85.93
2022-10-24T18:13:04.842Z,86.17
2022-10-24T18:15:31.914Z,86.64
2022-10-24T18:17:59.089Z,85.98
2022-10-24T18:20:26.184Z,85.03
2022-10-24T18:22:53.343Z,84.63
2022-10-24T18:25:22.912Z,84.18
2022-10-24T18:27:52.210Z,84.13
2022-10-24T18:30:22.818Z,84.44
2022-10-24T18:32:50.335Z,84.67
2022-10-24T18:35:20.819Z,84.83
2022-10-24T18:37:48.973Z,85.15
2022-10-24T18:40:17.096Z,84.96
2022-10-24T18:43:04.288Z,85.13
2022-10-24T18:45:32.764Z,85.11
2022-10-24T18:48:00.232Z,85.45
2022-10-24T18:50:29.462Z,85.49
2022-10-24T18:53:04.990Z,85.79
2022-10-24T18:55:33.817Z,85.78
2022-10-24T18:58:01.320Z,85.93
2022-10-24T19:00:30.949Z,86.14
2022-10-24T19:03:40.140Z,86.66
2022-10-24T19:06:26.739Z,86.78
2022-10-24T19:08:54.400Z,87.04
2022-10-24T19:11:23.482Z,87.78
2022-10-24T19:13:50.638Z,88.04
2022-10-24T19:16:22.098Z,88.17
2022-10-24T19:18:54.955Z,88.53
2022-10-24T19:21:22.270Z,88.57
2022-10-24T19:23:50.896Z,88.47
2022-10-24T19:26:18.236Z,88.60
2022-10-24T19:28:45.304Z,88.96
2022-10-24T19:31:13.514Z,89.13
2022-10-24T19:33:52.896Z,88.99
2022-10-24T19:36:20.137Z,89.21
2022-10-24T19:38:47.329Z,89.13
2022-10-24T19:41:14.547Z,89.65
2022-10-24T19:43:41.475Z,89.26
2022-10-24T19:46:19.329Z,89.28
2022-10-24T19:48:53.329Z,89.28
2022-10-24T19:51:20.513Z,89.22
2022-10-24T19:53:49.661Z,89.72
2022-10-24T19:56:25.575Z,89.42
2022-10-24T19:58:55.973Z,89.52
2022-10-24T20:01:25.786Z,89.69
2022-10-24T20:03:55.151Z,90.09
2022-10-24T20:06:24.355Z,90.11
2022-10-24T20:08:51.393Z,90.67
2022-10-24T20:11:20.949Z,90.82
2022-10-24T20:13:50.567Z,91.18
2022-10-24T20:16:18.391Z,91.05
2022-10-24T20:18:45.912Z,90.83
2022-10-24T20:21:16.273Z,90.97
2022-10-24T20:23:43.676Z,91.24
2022-10-24T20:26:14.427Z,91.05
2022-10-24T20:28:43.811Z,90.68
2022-10-24T20:31:21.945Z,90.98
2022-10-24T20:33:49.842Z,91.02
2022-10-24T20:36:17.182Z,90.92
2022-10-24T20:38:44.624Z,90.83
2022-10-24T20:41:11.567Z,90.67
2022-10-24T20:43:38.715Z,90.95
2022-10-24T20:46:06.662Z,91.21
2022-10-24T20:48:34.726Z,91.60
2022-10-24T20:51:06.356Z,92.25
2022-10-24T20:53:42.784Z,92.28
2022-10-24T20:56:15.583Z,92.11
2022-10-24T20:58:44.084Z,92.05
2022-10-24T21:01:14.089Z,92.11
2022-10-24T21:03:41.377Z,92.28
2022-10-24T21:06:28.606Z,92.10
2022-10-24T21:08:58.400Z,92.16
2022-10-24T21:11:28.022Z,91.87
2022-10-24T21:13:59.578Z,92.00
2022-10-24T21:16:27.876Z,92.00
2022-10-24T21:18:55.132Z,92.26
2022-10-24T21:21:23.021Z,92.84
2022-10-24T21:23:52.070Z,92.60
2022-10-24T21:26:19.879Z,92.54
2022-10-24T21:28:48.324Z,92.37
2022-10-24T21:31:17.848Z,92.39
2022-10-24T21:33:45.605Z,91.97
2022-10-24T21:36:15.096Z,91.81
2022-10-24T21:38:46.019Z,91.28
2022-10-24T21:41:13.025Z,91.57
2022-10-24T21:43:41.851Z,91.48
2022-10-24T21:46:10.809Z,91.68
2022-10-24T21:48:39.208Z,92.31
2022-10-24T21:51:10.727Z,92.56
2022-10-24T21:53:42.792Z,92.62
2022-10-24T21:56:12.839Z,93.12
2022-10-24T21:58:40.978Z,93.44
2022-10-24T22:01:13.243Z,93.69
2022-10-24T22:03:41.811Z,94.02
2022-10-24T22:06:12.161Z,94.45
2022-10-24T22:08:39.438Z,94.90
2022-10-24T22:11:11.615Z,95.10
2022-10-24T22:13:38.946Z,95.22
2022-10-24T22:16:07.713Z,95.10
2022-10-24T22:18:35.239Z,95.27
2022-10-24T22:21:04.001Z,95.10
2022-10-24T22:23:31.067Z,94.91
2022-10-24T22:25:58.942Z,94.46
2022-10-24T22:28:26.219Z,94.40
2022-10-24T22:30:53.588Z,94.17
2022-10-24T22:33:39.346Z,94.30
2022-10-24T22:36:13.688Z,94.44
2022-10-24T22:38:41.184Z,94.63
2022-10-24T22:41:12.289Z,94.60
2022-10-24T22:43:40.121Z,94.82
2022-10-24T22:46:22.297Z,95.02
2022-10-24T22:48:55.621Z,95.45
2022-10-24T22:51:23.152Z,95.70
2022-10-24T22:53:50.409Z,95.98
2022-10-24T22:56:27.753Z,96.06
2022-10-24T22:58:54.983Z,96.16
2022-10-24T23:01:36.431Z,96.33
2022-10-24T23:04:30.301Z,96.25
2022-10-24T23:07:16.515Z,96.21
2022-10-24T23:09:43.659Z,96.21
2022-10-24T23:12:14.630Z,96.09
2022-10-24T23:14:43.360Z,95.37
2022-10-24T23:17:14.171Z,94.89
2022-10-24T23:19:45.999Z,95.10
2022-10-24T23:22:26.666Z,95.66
2022-10-24T23:24:56.095Z,96.02
2022-10-24T23:27:25.442Z,96.23
2022-10-24T23:29:53.646Z,96.23
2022-10-24T23:32:23.268Z,96.26
2022-10-24T23:34:52.097Z,96.18
2022-10-24T23:37:28.979Z,96.26
2022-10-24T23:39:56.647Z,96.18
2022-10-24T23:42:24.114Z,96.03
2022-10-24T23:44:53.783Z,96.23
2022-10-24T23:47:52.032Z,96.57
2022-10-24T23:50:27.254Z,96.88
2022-10-24T23:53:00.793Z,97.19
2022-10-24T23:55:28.566Z,97.29
2022-10-24T23:57:55.492Z,98.06
